Time;durP1;ratioP1;P1;durP2;ratioP2;P2;SDS_P1;SDS_P2;PMS_P1;PMS_P2;Temp;Humidity;BMP_temperature;BMP_pressure;BME280_temperature;BME280_humidity;BME280_pressure;Samples;Min_cycle;Max_cycle;Signal;HPM_P1;HPM_P2
2021/08/06 00:01:31;;;;;;;7.70;7.20;;;;;;;;;;3586350;40;20051;-67
2021/08/06 00:03:59;;;;;;;7.60;7.00;;;;;;;;;;3586772;40;20048;-67
2021/08/06 00:06:27;;;;;;;7.97;7.38;;;;;;;;;;3586529;40;20109;-68
2021/08/06 00:08:53;;;;;;;9.27;8.57;;;;;;;;;;3585681;40;20398;-67
2021/08/06 00:11:19;;;;;;;7.78;7.18;;;;;;;;;;3585500;40;20049;-67
2021/08/06 00:13:44;;;;;;;8.75;8.07;;;;;;;;;;3586277;40;20032;-67
2021/08/06 00:16:09;;;;;;;8.75;8.05;;;;;;;;;;3585967;40;20036;-67
2021/08/06 00:18:35;;;;;;;8.52;7.82;;;;;;;;;;3585717;40;20474;-67
2021/08/06 00:21:00;;;;;;;8.63;8.02;;;;;;;;;;3586680;40;20382;-67
2021/08/06 00:23:26;;;;;;;8.43;7.78;;;;;;;;;;3586336;40;20338;-67
2021/08/06 00:25:51;;;;;;;7.68;7.07;;;;;;;;;;3586252;40;20064;-67
2021/08/06 00:28:17;;;;;;;8.15;6.60;;;;;;;;;;3586391;40;20098;-67
2021/08/06 00:30:42;;;;;;;8.38;7.68;;;;;;;;;;3586453;40;20157;-67
2021/08/06 00:33:07;;;;;;;8.07;7.47;;;;;;;;;;3585882;40;20044;-67
2021/08/06 00:35:33;;;;;;;7.00;6.45;;;;;;;;;;3586335;40;20041;-67
2021/08/06 00:37:58;;;;;;;8.55;7.95;;;;;;;;;;3584461;40;20032;-67
2021/08/06 00:40:24;;;;;;;9.02;8.32;;;;;;;;;;3586747;40;20040;-67
2021/08/06 00:42:51;;;;;;;8.13;7.47;;;;;;;;;;3586138;40;20028;-67
2021/08/06 00:45:16;;;;;;;7.05;6.55;;;;;;;;;;3584039;40;20032;-68
2021/08/06 00:47:42;;;;;;;7.43;6.82;;;;;;;;;;3583609;40;20050;-67
2021/08/06 00:50:09;;;;;;;6.63;6.10;;;;;;;;;;3584436;40;20051;-67
2021/08/06 00:52:35;;;;;;;10.05;7.70;;;;;;;;;;3585876;40;20281;-66
2021/08/06 00:55:00;;;;;;;7.57;6.97;;;;;;;;;;3586168;40;20051;-67
2021/08/06 00:57:26;;;;;;;8.32;7.63;;;;;;;;;;3586232;40;20040;-67
2021/08/06 00:59:51;;;;;;;9.05;8.35;;;;;;;;;;3586231;40;20072;-67
2021/08/06 01:02:21;;;;;;;8.60;7.80;;;;;;;;;;3584453;40;20140;-67
2021/08/06 01:05:04;;;;;;;7.95;7.25;;;;;;;;;;3584285;40;20120;-67
2021/08/06 01:07:41;;;;;;;8.00;7.40;;;;;;;;;;3586040;40;20045;-67
2021/08/06 01:10:10;;;;;;;7.70;7.00;;;;;;;;;;3586093;40;20032;-68
2021/08/06 01:12:43;;;;;;;7.72;7.13;;;;;;;;;;3585970;40;20259;-67
2021/08/06 01:15:11;;;;;;;8.13;7.53;;;;;;;;;;3585603;40;20039;-67
2021/08/06 01:17:41;;;;;;;7.18;6.57;;;;;;;;;;3586496;40;20048;-67
2021/08/06 01:20:13;;;;;;;7.63;7.03;;;;;;;;;;3585939;40;20044;-67
2021/08/06 01:22:44;;;;;;;8.20;7.50;;;;;;;;;;3586094;40;20133;-67
2021/08/06 01:25:15;;;;;;;7.88;7.28;;;;;;;;;;3585762;40;20384;-68
2021/08/06 01:27:45;;;;;;;7.30;6.70;;;;;;;;;;3587559;40;20059;-68
2021/08/06 01:30:11;;;;;;;7.88;7.18;;;;;;;;;;3587260;40;20408;-68
2021/08/06 01:32:37;;;;;;;8.65;7.95;;;;;;;;;;3587140;40;20455;-68
2021/08/06 01:35:05;;;;;;;9.05;8.35;;;;;;;;;;3586551;40;20040;-67
2021/08/06 01:37:31;;;;;;;9.07;8.38;;;;;;;;;;3587042;40;20041;-67
2021/08/06 01:39:57;;;;;;;8.88;8.25;;;;;;;;;;3587260;40;20558;-67
2021/08/06 01:42:34;;;;;;;9.10;8.43;;;;;;;;;;3587890;40;20040;-68
2021/08/06 01:44:59;;;;;;;9.93;9.20;;;;;;;;;;3587067;40;20090;-68
2021/08/06 01:47:38;;;;;;;9.27;8.63;;;;;;;;;;3587189;40;20036;-66
2021/08/06 01:50:09;;;;;;;12.68;11.25;;;;;;;;;;3585588;40;20044;-68
2021/08/06 01:52:48;;;;;;;11.38;10.55;;;;;;;;;;3586297;40;20037;-66
2021/08/06 01:55:16;;;;;;;11.23;10.32;;;;;;;;;;3587656;40;20389;-67
2021/08/06 01:57:48;;;;;;;11.75;10.85;;;;;;;;;;3587363;40;20056;-67
2021/08/06 02:00:14;;;;;;;16.92;15.75;;;;;;;;;;3584965;40;20129;-67
2021/08/06 02:02:40;;;;;;;10.63;9.82;;;;;;;;;;3587169;40;20039;-67
2021/08/06 02:05:06;;;;;;;11.70;10.90;;;;;;;;;;3586175;40;20055;-68
2021/08/06 02:07:32;;;;;;;12.65;11.70;;;;;;;;;;3587449;40;20470;-68
2021/08/06 02:09:58;;;;;;;11.45;10.45;;;;;;;;;;3586701;40;20116;-67
2021/08/06 02:12:24;;;;;;;10.77;10.05;;;;;;;;;;3587408;40;20036;-67
2021/08/06 02:14:49;;;;;;;8.60;7.95;;;;;;;;;;3587369;40;20051;-66
2021/08/06 02:17:15;;;;;;;11.93;11.05;;;;;;;;;;3587960;40;20033;-67
2021/08/06 02:19:43;;;;;;;10.48;9.52;;;;;;;;;;3587158;40;20039;-67
2021/08/06 02:22:10;;;;;;;14.05;13.05;;;;;;;;;;3587743;40;20040;-67
2021/08/06 02:24:39;;;;;;;8.27;7.65;;;;;;;;;;3587296;40;20117;-67
2021/08/06 02:27:06;;;;;;;11.45;10.55;;;;;;;;;;3587560;40;20135;-67
2021/08/06 02:29:32;;;;;;;12.07;11.27;;;;;;;;;;3586519;40;20044;-67
2021/08/06 02:32:00;;;;;;;7.95;7.35;;;;;;;;;;3586137;40;20044;-67
2021/08/06 02:34:26;;;;;;;9.10;8.45;;;;;;;;;;3586115;40;20044;-68
2021/08/06 02:36:52;;;;;;;9.63;8.82;;;;;;;;;;3586755;40;20037;-68
2021/08/06 02:39:28;;;;;;;8.80;8.10;;;;;;;;;;3587181;40;20331;-68
2021/08/06 02:41:59;;;;;;;10.93;10.13;;;;;;;;;;3586577;40;20047;-68
2021/08/06 02:44:25;;;;;;;8.80;8.00;;;;;;;;;;3587320;40;20029;-68
2021/08/06 02:46:50;;;;;;;8.45;7.03;;;;;;;;;;3587072;40;20130;-68
2021/08/06 02:49:16;;;;;;;11.27;10.48;;;;;;;;;;3586442;40;20291;-68
2021/08/06 02:51:41;;;;;;;9.15;8.35;;;;;;;;;;3587024;40;20051;-68
2021/08/06 02:54:07;;;;;;;9.88;9.18;;;;;;;;;;3586273;40;20044;-68
2021/08/06 02:56:33;;;;;;;10.93;10.10;;;;;;;;;;3586608;40;20056;-68
2021/08/06 02:58:58;;;;;;;11.65;10.85;;;;;;;;;;3584188;40;20029;-69
2021/08/06 03:01:24;;;;;;;11.70;10.90;;;;;;;;;;3586988;40;20029;-68
2021/08/06 03:03:49;;;;;;;9.70;9.00;;;;;;;;;;3586895;40;20064;-69
2021/08/06 03:06:15;;;;;;;12.60;11.60;;;;;;;;;;3586183;40;20132;-69
2021/08/06 03:08:40;;;;;;;9.70;8.80;;;;;;;;;;3587393;40;20053;-68
2021/08/06 03:11:05;;;;;;;11.90;11.05;;;;;;;;;;3585733;40;20122;-68
2021/08/06 03:13:31;;;;;;;10.95;8.55;;;;;;;;;;3586621;40;20036;-68
2021/08/06 03:15:56;;;;;;;9.07;8.18;;;;;;;;;;3586242;40;20323;-68
2021/08/06 03:18:22;;;;;;;10.70;9.73;;;;;;;;;;3586688;40;20025;-68
2021/08/06 03:20:47;;;;;;;11.82;10.88;;;;;;;;;;3585880;40;20040;-69
2021/08/06 03:23:13;;;;;;;10.30;9.55;;;;;;;;;;3585415;40;20025;-68
2021/08/06 03:25:38;;;;;;;8.80;8.00;;;;;;;;;;3587054;40;20040;-68
2021/08/06 03:28:04;;;;;;;11.45;10.57;;;;;;;;;;3586666;40;20036;-68
2021/08/06 03:30:29;;;;;;;8.18;7.50;;;;;;;;;;3587129;40;20038;-68
2021/08/06 03:32:55;;;;;;;8.88;7.93;;;;;;;;;;3586753;40;20395;-67
2021/08/06 03:35:20;;;;;;;8.57;7.97;;;;;;;;;;3586841;40;20484;-67
2021/08/06 03:37:46;;;;;;;8.43;7.63;;;;;;;;;;3585592;40;20040;-67
2021/08/06 03:40:13;;;;;;;8.85;8.15;;;;;;;;;;3585280;40;20834;-67
2021/08/06 03:42:39;;;;;;;8.02;7.43;;;;;;;;;;3586829;40;20033;-67
2021/08/06 03:45:05;;;;;;;7.65;7.15;;;;;;;;;;3585846;40;20045;-67
2021/08/06 03:47:32;;;;;;;8.13;7.53;;;;;;;;;;3586769;40;20032;-67
2021/08/06 03:49:57;;;;;;;8.73;8.02;;;;;;;;;;3585710;40;20044;-65
2021/08/06 03:52:22;;;;;;;9.88;9.05;;;;;;;;;;3586980;40;20033;-66
2021/08/06 03:54:48;;;;;;;16.27;15.23;;;;;;;;;;3585632;40;20390;-67
2021/08/06 03:57:13;;;;;;;8.52;7.82;;;;;;;;;;3584175;40;20122;-67
2021/08/06 03:59:39;;;;;;;11.98;11.07;;;;;;;;;;3585613;40;20049;-67
2021/08/06 04:02:04;;;;;;;7.47;6.88;;;;;;;;;;3586621;40;20032;-67
2021/08/06 04:04:29;;;;;;;9.13;8.35;;;;;;;;;;3586500;40;20037;-67
2021/08/06 04:06:55;;;;;;;9.88;9.18;;;;;;;;;;3586673;40;20037;-67
2021/08/06 04:09:20;;;;;;;14.68;13.75;;;;;;;;;;3586414;40;20049;-67
2021/08/06 04:11:46;;;;;;;12.18;11.30;;;;;;;;;;3585711;40;20043;-67
2021/08/06 04:14:11;;;;;;;10.57;9.82;;;;;;;;;;3585944;40;20028;-67
2021/08/06 04:16:37;;;;;;;13.52;12.65;;;;;;;;;;3586168;40;20045;-67
2021/08/06 04:19:02;;;;;;;16.02;14.88;;;;;;;;;;3585626;40;20126;-67
2021/08/06 04:21:28;;;;;;;13.02;12.02;;;;;;;;;;3586750;40;20040;-68
2021/08/06 04:23:53;;;;;;;10.27;9.48;;;;;;;;;;3586323;40;20040;-67
2021/08/06 04:26:19;;;;;;;9.10;8.43;;;;;;;;;;3585349;40;20052;-68
2021/08/06 04:28:44;;;;;;;23.00;21.45;;;;;;;;;;3586249;40;20483;-68
2021/08/06 04:31:10;;;;;;;10.57;9.82;;;;;;;;;;3586380;40;20040;-68
2021/08/06 04:33:35;;;;;;;17.25;16.17;;;;;;;;;;3582477;40;20279;-67
2021/08/06 04:36:01;;;;;;;17.77;16.35;;;;;;;;;;3585177;40;20037;-67
2021/08/06 04:38:27;;;;;;;16.15;15.02;;;;;;;;;;3585950;40;20345;-67
2021/08/06 04:40:52;;;;;;;19.25;18.10;;;;;;;;;;3585861;40;20042;-67
2021/08/06 04:43:20;;;;;;;22.30;20.50;;;;;;;;;;3585942;40;20029;-67
2021/08/06 04:45:46;;;;;;;16.08;15.05;;;;;;;;;;3586567;40;20036;-68
2021/08/06 04:48:12;;;;;;;12.52;11.60;;;;;;;;;;3585150;40;20102;-68
2021/08/06 04:50:38;;;;;;;16.13;15.15;;;;;;;;;;3586557;40;20044;-68
2021/08/06 04:53:03;;;;;;;10.82;9.98;;;;;;;;;;3586380;40;20492;-68
2021/08/06 04:55:29;;;;;;;11.90;10.95;;;;;;;;;;3586305;40;20049;-67
2021/08/06 04:57:54;;;;;;;12.38;11.50;;;;;;;;;;3585235;40;20040;-66
2021/08/06 05:00:20;;;;;;;14.25;13.27;;;;;;;;;;3586171;40;20041;-67
2021/08/06 05:02:46;;;;;;;13.65;12.80;;;;;;;;;;3585250;40;20098;-67
2021/08/06 05:05:12;;;;;;;11.02;10.23;;;;;;;;;;3585360;40;20037;-66
2021/08/06 05:07:37;;;;;;;10.02;9.32;;;;;;;;;;3584959;40;20143;-66
2021/08/06 05:10:04;;;;;;;9.73;9.00;;;;;;;;;;3585857;40;20044;-66
2021/08/06 05:12:29;;;;;;;10.80;9.80;;;;;;;;;;3585641;40;20356;-66
2021/08/06 05:14:54;;;;;;;11.48;10.73;;;;;;;;;;3586120;40;20048;-66
2021/08/06 05:17:20;;;;;;;10.35;9.55;;;;;;;;;;3585756;40;20056;-66
2021/08/06 05:19:45;;;;;;;10.00;9.23;;;;;;;;;;3585762;40;20032;-65
2021/08/06 05:22:11;;;;;;;10.52;8.95;;;;;;;;;;3586450;40;20044;-65
2021/08/06 05:24:36;;;;;;;8.15;7.45;;;;;;;;;;3585393;40;20657;-67
2021/08/06 05:27:01;;;;;;;8.98;8.30;;;;;;;;;;3584788;40;20032;-66
2021/08/06 05:29:27;;;;;;;8.60;7.90;;;;;;;;;;3585414;40;20052;-67
2021/08/06 05:31:52;;;;;;;7.75;7.13;;;;;;;;;;3585716;40;20331;-66
2021/08/06 05:34:18;;;;;;;9.13;8.43;;;;;;;;;;3584490;40;20268;-66
2021/08/06 05:36:43;;;;;;;8.80;8.15;;;;;;;;;;3585836;40;20061;-66
2021/08/06 05:39:09;;;;;;;8.90;8.20;;;;;;;;;;3585785;40;20149;-67
2021/08/06 05:41:34;;;;;;;10.65;9.80;;;;;;;;;;3585846;40;20037;-65
2021/08/06 05:43:59;;;;;;;12.25;11.45;;;;;;;;;;3584539;40;20038;-66
2021/08/06 05:46:25;;;;;;;10.02;9.18;;;;;;;;;;3584430;40;20032;-66
2021/08/06 05:48:50;;;;;;;6.85;6.35;;;;;;;;;;3582236;40;20049;-67
2021/08/06 05:51:16;;;;;;;10.90;9.90;;;;;;;;;;3583807;40;20049;-66
2021/08/06 05:53:41;;;;;;;8.75;8.10;;;;;;;;;;3582234;40;20041;-67
2021/08/06 05:56:07;;;;;;;9.80;9.10;;;;;;;;;;3582846;40;20052;-67
2021/08/06 05:58:32;;;;;;;9.40;8.70;;;;;;;;;;3582817;40;20044;-67
2021/08/06 06:00:58;;;;;;;7.15;6.57;;;;;;;;;;3583134;40;20048;-69
2021/08/06 06:03:23;;;;;;;8.75;8.10;;;;;;;;;;3582921;40;20040;-66
2021/08/06 06:05:49;;;;;;;8.70;8.00;;;;;;;;;;3583032;40;20276;-67
2021/08/06 06:08:14;;;;;;;13.45;12.43;;;;;;;;;;3585521;40;20029;-68
2021/08/06 06:10:40;;;;;;;13.00;8.35;;;;;;;;;;3585517;40;20427;-66
2021/08/06 06:13:05;;;;;;;9.00;8.30;;;;;;;;;;3586723;40;20033;-69
2021/08/06 06:15:31;;;;;;;8.52;7.85;;;;;;;;;;3587454;40;20133;-68
2021/08/06 06:17:57;;;;;;;10.88;9.90;;;;;;;;;;3586884;40;20728;-68
2021/08/06 06:20:23;;;;;;;8.23;7.53;;;;;;;;;;3586822;40;20268;-70
2021/08/06 06:22:49;;;;;;;8.63;7.82;;;;;;;;;;3585935;40;20041;-68
2021/08/06 06:25:15;;;;;;;9.38;8.57;;;;;;;;;;3586185;40;20082;-69
2021/08/06 06:27:51;;;;;;;8.38;7.68;;;;;;;;;;3585236;40;20362;-67
2021/08/06 06:30:17;;;;;;;10.60;9.80;;;;;;;;;;3586478;40;20141;-69
2021/08/06 06:32:43;;;;;;;13.10;12.13;;;;;;;;;;3587030;40;20041;-67
2021/08/06 06:35:08;;;;;;;12.05;11.15;;;;;;;;;;3587170;40;20518;-67
2021/08/06 06:37:34;;;;;;;12.95;12.07;;;;;;;;;;3586795;40;20035;-67
2021/08/06 06:39:59;;;;;;;9.43;8.63;;;;;;;;;;3586063;40;20389;-68
2021/08/06 06:42:24;;;;;;;8.65;7.95;;;;;;;;;;3585454;40;20037;-68
2021/08/06 06:44:50;;;;;;;8.10;7.40;;;;;;;;;;3586599;40;20044;-68
2021/08/06 06:47:15;;;;;;;10.23;9.45;;;;;;;;;;3586660;40;20057;-68
2021/08/06 06:49:41;;;;;;;9.02;8.30;;;;;;;;;;3587252;40;20087;-68
2021/08/06 06:52:06;;;;;;;7.32;5.97;;;;;;;;;;3586202;40;20052;-70
2021/08/06 06:54:31;;;;;;;5.35;4.82;;;;;;;;;;3586277;40;20088;-68
2021/08/06 06:56:57;;;;;;;5.65;5.00;;;;;;;;;;3587277;40;20059;-69
2021/08/06 06:59:23;;;;;;;5.32;4.75;;;;;;;;;;3586816;40;20048;-68
2021/08/06 07:01:48;;;;;;;7.20;6.22;;;;;;;;;;3587031;40;20040;-68
2021/08/06 07:04:13;;;;;;;7.10;6.05;;;;;;;;;;3586254;40;20036;-67
2021/08/06 07:06:39;;;;;;;7.40;6.75;;;;;;;;;;3586893;40;20352;-69
2021/08/06 07:09:08;;;;;;;7.40;6.63;;;;;;;;;;3586754;40;20271;-66
2021/08/06 07:11:34;;;;;;;8.30;7.63;;;;;;;;;;3586275;40;20490;-69
2021/08/06 07:13:59;;;;;;;6.35;5.80;;;;;;;;;;3587155;40;20043;-68
2021/08/06 07:16:25;;;;;;;6.78;6.03;;;;;;;;;;3584579;40;20025;-68
2021/08/06 07:18:50;;;;;;;7.03;6.43;;;;;;;;;;3585576;40;20052;-68
2021/08/06 07:21:16;;;;;;;7.07;6.22;;;;;;;;;;3587215;40;20039;-68
2021/08/06 07:23:41;;;;;;;7.70;7.00;;;;;;;;;;3585333;40;20090;-68
2021/08/06 07:26:07;;;;;;;7.88;6.40;;;;;;;;;;3585130;40;20044;-68
2021/08/06 07:28:32;;;;;;;6.60;6.00;;;;;;;;;;3586238;40;20045;-69
2021/08/06 07:30:57;;;;;;;7.00;6.40;;;;;;;;;;3584868;40;20040;-68
2021/08/06 07:33:23;;;;;;;9.20;8.32;;;;;;;;;;3585355;40;20265;-67
2021/08/06 07:35:48;;;;;;;6.22;5.35;;;;;;;;;;3586729;40;20035;-67
2021/08/06 07:38:14;;;;;;;5.97;5.38;;;;;;;;;;3585466;40;20036;-69
2021/08/06 07:40:39;;;;;;;6.78;6.22;;;;;;;;;;3585913;40;20036;-68
2021/08/06 07:43:05;;;;;;;7.25;6.60;;;;;;;;;;3585812;40;20029;-68
2021/08/06 07:45:31;;;;;;;14.05;13.05;;;;;;;;;;3585740;40;20113;-67
2021/08/06 07:47:56;;;;;;;8.07;7.32;;;;;;;;;;3585346;40;20033;-69
2021/08/06 07:50:22;;;;;;;9.63;8.75;;;;;;;;;;3585200;40;20044;-67
2021/08/06 07:52:47;;;;;;;5.97;5.45;;;;;;;;;;3585602;40;20126;-68
2021/08/06 07:55:15;;;;;;;5.38;4.88;;;;;;;;;;3586965;40;20052;-68
2021/08/06 07:57:41;;;;;;;5.45;4.95;;;;;;;;;;3586235;40;20260;-70
2021/08/06 08:00:07;;;;;;;7.72;7.03;;;;;;;;;;3586576;40;20044;-68
2021/08/06 08:02:32;;;;;;;7.65;6.95;;;;;;;;;;3586314;40;20092;-67
2021/08/06 08:04:58;;;;;;;8.13;7.45;;;;;;;;;;3585085;40;20867;-68
2021/08/06 08:07:23;;;;;;;11.57;10.75;;;;;;;;;;3586742;40;20037;-68
2021/08/06 08:09:49;;;;;;;7.97;7.32;;;;;;;;;;3586149;40;20361;-67
2021/08/06 08:12:14;;;;;;;5.65;5.15;;;;;;;;;;3586682;40;20043;-68
2021/08/06 08:14:39;;;;;;;5.30;4.80;;;;;;;;;;3585624;40;20094;-68
2021/08/06 08:17:05;;;;;;;9.65;6.57;;;;;;;;;;3586950;40;20073;-67
2021/08/06 08:19:31;;;;;;;4.82;4.13;;;;;;;;;;3586794;40;20036;-68
2021/08/06 08:21:56;;;;;;;6.68;6.03;;;;;;;;;;3586725;40;20075;-69
2021/08/06 08:24:22;;;;;;;4.97;4.43;;;;;;;;;;3586489;40;20043;-67
2021/08/06 08:26:47;;;;;;;4.38;3.28;;;;;;;;;;3586379;40;20122;-68
2021/08/06 08:29:13;;;;;;;4.65;3.15;;;;;;;;;;3586395;40;20082;-66
2021/08/06 08:31:39;;;;;;;4.93;3.17;;;;;;;;;;3586191;40;20037;-67
2021/08/06 08:34:04;;;;;;;5.50;4.20;;;;;;;;;;3585384;40;20063;-68
2021/08/06 08:36:30;;;;;;;5.95;3.67;;;;;;;;;;3584496;40;20021;-67
2021/08/06 08:38:55;;;;;;;4.40;4.00;;;;;;;;;;3584252;40;20039;-68
2021/08/06 08:41:21;;;;;;;6.82;6.22;;;;;;;;;;3585241;40;20040;-69
2021/08/06 08:43:46;;;;;;;6.57;6.03;;;;;;;;;;3586203;40;20125;-68
2021/08/06 08:46:12;;;;;;;5.30;3.17;;;;;;;;;;3585392;40;20060;-68
2021/08/06 08:48:38;;;;;;;4.10;3.15;;;;;;;;;;3585096;40;20268;-68
2021/08/06 08:51:04;;;;;;;4.57;3.08;;;;;;;;;;3586440;40;20051;-69
2021/08/06 08:53:30;;;;;;;4.05;2.75;;;;;;;;;;3584743;40;20041;-67
2021/08/06 08:55:56;;;;;;;3.60;2.17;;;;;;;;;;3585238;40;20271;-68
2021/08/06 08:58:22;;;;;;;3.55;2.50;;;;;;;;;;3585037;40;20461;-67
2021/08/06 09:00:47;;;;;;;3.55;2.47;;;;;;;;;;3586784;40;20361;-67
2021/08/06 09:03:43;;;;;;;2.95;2.20;;;;;;;;;;3585261;40;20118;-67
2021/08/06 09:06:08;;;;;;;4.57;2.78;;;;;;;;;;3584205;40;20071;-67
2021/08/06 09:08:35;;;;;;;2.88;2.25;;;;;;;;;;3585660;40;20040;-67
2021/08/06 09:11:00;;;;;;;3.22;2.30;;;;;;;;;;3584112;40;20049;-68
2021/08/06 09:13:27;;;;;;;5.93;2.05;;;;;;;;;;3584277;40;20040;-67
2021/08/06 09:15:53;;;;;;;3.20;2.53;;;;;;;;;;3585148;40;20041;-67
2021/08/06 09:18:28;;;;;;;2.72;1.90;;;;;;;;;;3584160;40;20390;-67
2021/08/06 09:21:07;;;;;;;2.55;1.60;;;;;;;;;;3585084;40;20068;-68
2021/08/06 09:23:49;;;;;;;2.45;1.67;;;;;;;;;;3585234;40;20146;-67
2021/08/06 09:26:26;;;;;;;2.03;1.42;;;;;;;;;;3585441;40;20099;-68
2021/08/06 09:29:19;;;;;;;3.50;2.28;;;;;;;;;;3579374;40;20059;-69
2021/08/06 09:31:51;;;;;;;2.70;1.88;;;;;;;;;;3585273;40;20361;-67
2021/08/06 09:34:36;;;;;;;2.78;1.95;;;;;;;;;;3586052;40;20056;-67
2021/08/06 09:37:12;;;;;;;3.47;2.40;;;;;;;;;;3584750;40;20042;-67
2021/08/06 09:39:52;;;;;;;2.22;1.52;;;;;;;;;;3584629;40;20257;-68
2021/08/06 09:42:24;;;;;;;2.70;1.70;;;;;;;;;;3587408;40;20033;-68
2021/08/06 09:44:56;;;;;;;2.53;1.70;;;;;;;;;;3586887;40;20253;-69
2021/08/06 09:47:22;;;;;;;3.83;2.03;;;;;;;;;;3587829;40;20028;-68
2021/08/06 09:49:54;;;;;;;4.15;2.25;;;;;;;;;;3587259;40;20055;-69
2021/08/06 09:52:35;;;;;;;3.17;2.05;;;;;;;;;;3586120;40;20059;-68
2021/08/06 09:55:04;;;;;;;2.85;1.85;;;;;;;;;;3585412;40;20044;-69
2021/08/06 09:57:29;;;;;;;3.85;1.95;;;;;;;;;;3586250;40;20107;-68
2021/08/06 09:59:56;;;;;;;3.17;1.70;;;;;;;;;;3587339;40;20041;-67
2021/08/06 10:02:32;;;;;;;4.32;2.30;;;;;;;;;;3587327;40;20291;-68
2021/08/06 10:05:05;;;;;;;3.67;2.50;;;;;;;;;;3587527;40;20032;-68
2021/08/06 10:07:41;;;;;;;3.17;1.92;;;;;;;;;;3586667;40;20040;-59
2021/08/06 10:10:09;;;;;;;3.67;2.17;;;;;;;;;;3587086;40;20106;-59
2021/08/06 10:12:34;;;;;;;4.68;2.33;;;;;;;;;;3586114;40;20081;-59
2021/08/06 10:15:01;;;;;;;3.70;2.63;;;;;;;;;;3585307;40;20037;-59
2021/08/06 10:17:26;;;;;;;3.83;2.60;;;;;;;;;;3587020;40;20028;-59
2021/08/06 10:19:52;;;;;;;4.80;2.88;;;;;;;;;;3585880;40;20036;-59
2021/08/06 10:22:18;;;;;;;5.95;2.53;;;;;;;;;;3585957;40;20048;-59
2021/08/06 10:24:47;;;;;;;4.43;2.50;;;;;;;;;;3587249;40;20350;-59
2021/08/06 10:27:14;;;;;;;4.55;2.33;;;;;;;;;;3586496;40;20043;-59
2021/08/06 10:30:08;;;;;;;5.68;2.30;;;;;;;;;;3586175;40;20049;-60
2021/08/06 10:32:34;;;;;;;4.63;2.42;;;;;;;;;;3585988;40;20485;-59
2021/08/06 10:35:03;;;;;;;5.68;2.30;;;;;;;;;;3587003;40;20121;-60
2021/08/06 10:37:49;;;;;;;4.07;2.10;;;;;;;;;;3586309;40;20048;-60
2021/08/06 10:40:33;;;;;;;4.43;2.78;;;;;;;;;;3585353;40;20040;-60
2021/08/06 10:43:11;;;;;;;3.10;2.08;;;;;;;;;;3585840;40;20068;-59
2021/08/06 10:45:45;;;;;;;5.68;2.35;;;;;;;;;;3586884;40;20277;-60
2021/08/06 10:48:30;;;;;;;7.78;4.85;;;;;;;;;;3586750;40;20045;-60
2021/08/06 10:51:14;;;;;;;6.60;3.88;;;;;;;;;;3580889;40;20350;-59
2021/08/06 10:53:40;;;;;;;3.67;2.15;;;;;;;;;;3579845;40;20068;-59
2021/08/06 10:56:33;;;;;;;4.55;1.67;;;;;;;;;;3585790;40;20051;-59
2021/08/06 10:59:03;;;;;;;4.32;1.85;;;;;;;;;;3585796;40;20376;-59
2021/08/06 11:01:29;;;;;;;1.98;1.20;;;;;;;;;;3586073;40;20041;-59
2021/08/06 11:04:21;;;;;;;3.20;1.52;;;;;;;;;;3587250;40;20277;-59
2021/08/06 11:06:54;;;;;;;2.40;1.20;;;;;;;;;;3575978;40;20031;-59
2021/08/06 11:09:26;;;;;;;4.45;1.27;;;;;;;;;;3586277;40;20383;-59
2021/08/06 11:12:01;;;;;;;2.10;1.30;;;;;;;;;;3586369;40;20044;-59
2021/08/06 11:14:32;;;;;;;3.75;1.38;;;;;;;;;;3586348;40;20029;-59
2021/08/06 11:17:06;;;;;;;3.30;1.70;;;;;;;;;;3586000;40;20059;-59
2021/08/06 11:19:32;;;;;;;2.47;1.23;;;;;;;;;;3586048;40;20082;-59
2021/08/06 11:21:59;;;;;;;2.42;1.17;;;;;;;;;;3586260;40;20028;-59
2021/08/06 11:24:26;;;;;;;2.97;1.15;;;;;;;;;;3588151;40;20046;-60
2021/08/06 11:26:51;;;;;;;2.38;1.13;;;;;;;;;;3586941;40;20029;-59
2021/08/06 11:29:18;;;;;;;3.55;1.30;;;;;;;;;;3586322;40;20072;-59
2021/08/06 11:31:57;;;;;;;6.25;1.23;;;;;;;;;;3586855;40;20388;-59
2021/08/06 11:34:22;;;;;;;1.42;0.82;;;;;;;;;;3586084;40;20415;-58
2021/08/06 11:36:56;;;;;;;2.20;1.10;;;;;;;;;;3583042;40;20036;-59
2021/08/06 11:39:21;;;;;;;2.28;1.10;;;;;;;;;;3585524;40;20139;-59
2021/08/06 11:41:49;;;;;;;4.00;1.63;;;;;;;;;;3586480;40;20465;-59
2021/08/06 11:44:14;;;;;;;2.80;1.42;;;;;;;;;;3585518;40;20113;-61
2021/08/06 11:46:51;;;;;;;1.90;0.95;;;;;;;;;;3586105;40;20052;-60
2021/08/06 11:49:17;;;;;;;2.85;1.33;;;;;;;;;;3585873;40;20373;-60
2021/08/06 11:51:55;;;;;;;2.17;1.00;;;;;;;;;;3585614;40;20041;-60
2021/08/06 11:54:24;;;;;;;3.00;1.27;;;;;;;;;;3584803;40;20352;-60
2021/08/06 11:57:00;;;;;;;1.83;1.00;;;;;;;;;;3585218;40;20047;-59
2021/08/06 11:59:26;;;;;;;1.80;0.90;;;;;;;;;;3584376;40;20033;-58
2021/08/06 12:02:21;;;;;;;1.45;0.77;;;;;;;;;;3586183;40;20394;-59
2021/08/06 12:04:46;;;;;;;1.80;0.80;;;;;;;;;;3586018;40;20029;-59
2021/08/06 12:07:12;;;;;;;3.25;1.05;;;;;;;;;;3587180;40;20338;-59
2021/08/06 12:09:37;;;;;;;2.13;1.13;;;;;;;;;;3585982;40;20435;-58
2021/08/06 12:12:03;;;;;;;2.15;0.90;;;;;;;;;;3586257;40;20052;-59
2021/08/06 12:14:28;;;;;;;1.85;1.00;;;;;;;;;;3586314;40;20037;-58
2021/08/06 12:16:55;;;;;;;2.17;1.00;;;;;;;;;;3587103;40;20037;-58
2021/08/06 12:19:20;;;;;;;2.70;1.00;;;;;;;;;;3586317;40;20029;-59
2021/08/06 12:21:46;;;;;;;1.30;0.80;;;;;;;;;;3585567;40;20069;-59
2021/08/06 12:24:17;;;;;;;2.30;1.00;;;;;;;;;;3583026;40;20623;-58
2021/08/06 12:26:56;;;;;;;2.60;0.80;;;;;;;;;;3586291;40;20036;-59
2021/08/06 12:29:30;;;;;;;2.15;0.95;;;;;;;;;;3586091;40;20047;-58
2021/08/06 12:31:56;;;;;;;2.80;1.10;;;;;;;;;;3584631;40;20036;-58
2021/08/06 12:34:27;;;;;;;2.20;1.15;;;;;;;;;;3584376;40;20059;-60
2021/08/06 12:37:08;;;;;;;3.13;1.00;;;;;;;;;;3585804;40;20052;-59
2021/08/06 12:39:37;;;;;;;3.28;1.20;;;;;;;;;;3585517;40;20049;-59
2021/08/06 12:42:21;;;;;;;32.50;1.70;;;;;;;;;;3584625;40;20309;-59
2021/08/06 12:45:08;;;;;;;3.63;0.90;;;;;;;;;;3582754;40;20029;-59
2021/08/06 12:47:48;;;;;;;1.90;0.93;;;;;;;;;;3584302;40;20137;-59
2021/08/06 12:50:21;;;;;;;2.60;1.00;;;;;;;;;;3584141;40;20037;-59
2021/08/06 12:53:15;;;;;;;2.85;1.15;;;;;;;;;;3585623;40;20085;-59
2021/08/06 12:55:42;;;;;;;1.60;0.80;;;;;;;;;;3583856;40;20138;-59
2021/08/06 12:58:10;;;;;;;1.77;0.82;;;;;;;;;;3584180;40;20165;-59
2021/08/06 13:00:37;;;;;;;2.05;0.98;;;;;;;;;;3585027;40;20051;-59
2021/08/06 13:03:09;;;;;;;2.03;0.82;;;;;;;;;;3585862;40;20044;-60
2021/08/06 13:05:38;;;;;;;2.05;1.00;;;;;;;;;;3586191;40;20032;-59
2021/08/06 13:08:20;;;;;;;1.37;0.77;;;;;;;;;;3585389;40;20029;-59
2021/08/06 13:11:06;;;;;;;3.10;0.85;;;;;;;;;;3585523;40;20047;-59
2021/08/06 13:13:39;;;;;;;2.00;0.90;;;;;;;;;;3585651;40;20383;-59
2021/08/06 13:16:06;;;;;;;1.70;0.90;;;;;;;;;;3585586;40;20044;-59
2021/08/06 13:18:32;;;;;;;2.25;0.90;;;;;;;;;;3585635;40;20044;-59
2021/08/06 13:20:57;;;;;;;2.83;1.10;;;;;;;;;;3585773;40;20041;-59
2021/08/06 13:23:23;;;;;;;1.45;0.98;;;;;;;;;;3583778;40;20122;-60
2021/08/06 13:25:50;;;;;;;2.42;0.80;;;;;;;;;;3587493;40;20044;-59
2021/08/06 13:28:15;;;;;;;3.38;1.20;;;;;;;;;;3586463;40;20022;-59
2021/08/06 13:30:42;;;;;;;2.60;1.05;;;;;;;;;;3584458;40;20028;-60
2021/08/06 13:33:40;;;;;;;3.00;1.00;;;;;;;;;;3585960;40;20045;-60
2021/08/06 13:37:08;;;;;;;1.55;0.80;;;;;;;;;;3583879;40;20057;-59
2021/08/06 13:40:31;;;;;;;;;;;;;;;;;;;;;
2021/08/06 13:47:20;;;;;;;;;;;;;;;;;;;;;
2021/08/06 13:51:24;;;;;;;2.42;1.08;;;;;;;;;;3585093;40;20049;-59
2021/08/06 13:54:12;;;;;;;2.15;0.95;;;;;;;;;;3579621;39;20049;-59
2021/08/06 13:57:19;;;;;;;2.50;0.90;;;;;;;;;;3561288;40;20034;-59
2021/08/06 14:03:15;;;;;;;4.03;0.82;;;;;;;;;;3562618;40;20046;-59
2021/08/06 14:06:30;;;;;;;2.88;1.40;;;;;;;;;;3584684;40;20041;-59
2021/08/06 14:09:55;;;;;;;2.15;1.10;;;;;;;;;;3585471;40;20042;-59
2021/08/06 14:13:45;;;;;;;2.65;1.35;;;;;;;;;;3585727;40;20349;-59
2021/08/06 14:17:20;;;;;;;;;;;;;;;;;;;;;
2021/08/06 14:23:57;;;;;;;1.98;1.05;;;;;;;;;;3558589;40;20338;-59
2021/08/06 14:31:08;;;;;;;5.63;2.85;;;;;;;;;;3574271;40;20333;-59
2021/08/06 14:34:00;;;;;;;2.05;1.10;;;;;;;;;;3586087;40;20043;-59
2021/08/06 14:44:37;;;;;;;3.88;2.08;;;;;;;;;;3581814;40;20090;-59
2021/08/06 14:51:09;;;;;;;;;;;;;;;;;;;;;
2021/08/06 14:54:34;;;;;;;2.10;1.20;;;;;;;;;;3586304;40;20044;-59
2021/08/06 15:01:01;;;;;;;;;;;;;;;;;;;;;
2021/08/06 15:04:36;;;;;;;1.55;0.85;;;;;;;;;;3583247;40;20306;-60
2021/08/06 15:10:53;;;;;;;2.90;1.02;;;;;;;;;;3584103;40;20028;-59
2021/08/06 15:24:23;;;;;;;1.37;0.90;;;;;;;;;;3586478;40;20620;-59
2021/08/06 15:27:30;;;;;;;1.65;0.90;;;;;;;;;;3585034;40;20386;-60
2021/08/06 15:30:48;;;;;;;3.28;1.13;;;;;;;;;;3583759;40;20042;-60
2021/08/06 15:33:47;;;;;;;3.28;1.10;;;;;;;;;;3586931;40;20032;-60
2021/08/06 15:36:36;;;;;;;;;;;;;;;;;;;;;
2021/08/06 15:39:28;;;;;;;1.42;0.85;;;;;;;;;;3572031;40;20275;-60
2021/08/06 15:42:12;;;;;;;2.35;1.10;;;;;;;;;;3571990;40;20065;-59
2021/08/06 15:45:08;;;;;;;1.33;0.77;;;;;;;;;;3571894;40;20041;-60
2021/08/06 15:48:03;;;;;;;2.40;1.10;;;;;;;;;;3578334;40;20029;-60
2021/08/06 15:51:32;;;;;;;3.03;1.17;;;;;;;;;;3586022;40;20213;-59
2021/08/06 15:54:30;;;;;;;1.70;0.98;;;;;;;;;;3585922;40;20067;-59